Time;durP1;ratioP1;P1;durP2;ratioP2;P2;SDS_P1;SDS_P2;PMS_P1;PMS_P2;Temp;Humidity;BMP_temperature;BMP_pressure;BME280_temperature;BME280_humidity;BME280_pressure;Samples;Min_cycle;Max_cycle;Signal;HPM_P1;HPM_P2
2023/12/26 00:00:11;;;;;;;0.10;0.10;;;;;;;;;;522030;28;1427;-73
2023/12/26 00:00:26;;;;;;;0.50;0.10;;;;;;;;;;522459;28;2014;-73
2023/12/26 00:00:42;;;;;;;0.50;0.20;;;;;;;;;;521656;28;1503;-73
2023/12/26 00:00:57;;;;;;;0.20;0.10;;;;;;;;;;523325;28;1372;-73
2023/12/26 00:01:13;;;;;;;0.15;0.10;;;;;;;;;;524887;28;1616;-73
2023/12/26 00:01:29;;;;;;;0.20;0.10;;;;;;;;;;524394;28;1423;-73
2023/12/26 00:01:48;;;;;;;0.52;0.10;;;;;;;;;;525067;28;1450;-74
2023/12/26 00:02:03;;;;;;;0.75;0.10;;;;;;;;;;524253;28;2083;-73
2023/12/26 00:02:18;;;;;;;1.03;0.10;;;;;;;;;;524669;28;1321;-73
2023/12/26 00:02:34;;;;;;;0.95;0.10;;;;;;;;;;523602;28;1447;-73
2023/12/26 00:02:49;;;;;;;0.27;0.10;;;;;;;;;;523678;28;2305;-73
2023/12/26 00:03:06;;;;;;;0.10;0.10;;;;;;;;;;524820;28;1409;-73
2023/12/26 00:03:21;;;;;;;0.10;0.10;;;;;;;;;;524920;28;1501;-73
2023/12/26 00:03:37;;;;;;;0.20;0.10;;;;;;;;;;522438;28;1459;-73
2023/12/26 00:03:52;;;;;;;0.40;0.20;;;;;;;;;;522840;28;1558;-73
2023/12/26 00:04:07;;;;;;;0.50;0.30;;;;;;;;;;524808;28;1277;-73
2023/12/26 00:04:23;;;;;;;0.45;0.20;;;;;;;;;;526788;28;1767;-73
2023/12/26 00:04:38;;;;;;;0.43;0.20;;;;;;;;;;525015;28;1439;-73
2023/12/26 00:04:53;;;;;;;0.40;0.13;;;;;;;;;;524611;28;1512;-73
2023/12/26 00:05:09;;;;;;;0.23;0.10;;;;;;;;;;522907;28;1427;-73
2023/12/26 00:05:24;;;;;;;0.10;0.00;;;;;;;;;;522735;28;1568;-73
2023/12/26 00:05:40;;;;;;;0.10;0.10;;;;;;;;;;524183;28;1477;-73
2023/12/26 00:05:55;;;;;;;0.10;0.10;;;;;;;;;;524366;28;1533;-73
2023/12/26 00:06:10;;;;;;;0.43;0.10;;;;;;;;;;525179;28;1348;-73
2023/12/26 00:06:26;;;;;;;0.45;0.10;;;;;;;;;;524138;28;1576;-73
2023/12/26 00:06:44;;;;;;;0.30;0.10;;;;;;;;;;523378;28;1408;-73
2023/12/26 00:07:00;;;;;;;0.35;0.10;;;;;;;;;;524855;28;1399;-73
2023/12/26 00:07:15;;;;;;;0.20;0.10;;;;;;;;;;525256;28;1504;-73
2023/12/26 00:07:31;;;;;;;0.43;0.10;;;;;;;;;;525109;28;2785;-73
2023/12/26 00:07:46;;;;;;;0.40;0.10;;;;;;;;;;525990;28;1367;-73
2023/12/26 00:08:03;;;;;;;0.15;0.08;;;;;;;;;;526862;28;1402;-73
2023/12/26 00:08:18;;;;;;;0.80;0.10;;;;;;;;;;526002;28;1510;-73
2023/12/26 00:08:34;;;;;;;1.30;0.17;;;;;;;;;;526870;27;1610;-73
2023/12/26 00:08:49;;;;;;;0.80;0.10;;;;;;;;;;525639;28;1462;-73
2023/12/26 00:09:05;;;;;;;0.10;0.10;;;;;;;;;;525323;28;1933;-73
2023/12/26 00:09:20;;;;;;;0.17;0.10;;;;;;;;;;526868;28;1343;-73
2023/12/26 00:09:39;;;;;;;0.20;0.10;;;;;;;;;;523584;28;1614;-73
2023/12/26 00:09:55;;;;;;;0.10;0.10;;;;;;;;;;524346;28;1520;-73
2023/12/26 00:10:11;;;;;;;0.07;0.00;;;;;;;;;;524194;28;2271;-73
2023/12/26 00:10:27;;;;;;;0.10;0.10;;;;;;;;;;524436;28;1278;-72
2023/12/26 00:10:42;;;;;;;0.20;0.10;;;;;;;;;;525177;28;1325;-73
2023/12/26 00:10:58;;;;;;;0.10;0.00;;;;;;;;;;526992;28;2283;-73
2023/12/26 00:11:15;;;;;;;0.00;0.00;;;;;;;;;;526215;28;1351;-73
2023/12/26 00:11:30;;;;;;;0.32;0.05;;;;;;;;;;525300;28;1435;-73
2023/12/26 00:11:46;;;;;;;0.30;0.10;;;;;;;;;;526002;28;1495;-73
2023/12/26 00:12:02;;;;;;;0.17;0.10;;;;;;;;;;525673;28;1222;-73
2023/12/26 00:12:17;;;;;;;0.25;0.10;;;;;;;;;;526604;28;1784;-73
2023/12/26 00:12:32;;;;;;;0.13;0.00;;;;;;;;;;527048;28;1895;-73
2023/12/26 00:12:48;;;;;;;0.05;0.00;;;;;;;;;;524329;28;1549;-73
2023/12/26 00:13:04;;;;;;;0.50;0.10;;;;;;;;;;524701;28;1336;-73
2023/12/26 00:13:19;;;;;;;0.65;0.10;;;;;;;;;;525179;28;1477;-73
2023/12/26 00:13:34;;;;;;;0.40;0.10;;;;;;;;;;524546;28;1382;-73
2023/12/26 00:13:51;;;;;;;0.20;0.00;;;;;;;;;;524876;28;1373;-73
2023/12/26 00:14:06;;;;;;;0.00;0.00;;;;;;;;;;525052;28;1512;-73
2023/12/26 00:14:21;;;;;;;0.50;0.10;;;;;;;;;;527181;28;1410;-73
2023/12/26 00:14:37;;;;;;;0.70;0.10;;;;;;;;;;526340;28;1277;-73
2023/12/26 00:14:52;;;;;;;0.20;0.10;;;;;;;;;;527988;27;1382;-73
2023/12/26 00:15:08;;;;;;;0.20;0.00;;;;;;;;;;526770;28;1394;-73
2023/12/26 00:15:23;;;;;;;0.30;0.10;;;;;;;;;;525373;28;1564;-73
2023/12/26 00:15:39;;;;;;;0.20;0.10;;;;;;;;;;527150;28;1458;-72
2023/12/26 00:15:54;;;;;;;0.20;0.10;;;;;;;;;;524957;28;1588;-72
2023/12/26 00:16:09;;;;;;;0.40;0.20;;;;;;;;;;524172;28;1935;-73
2023/12/26 00:16:25;;;;;;;0.30;0.20;;;;;;;;;;524861;28;1386;-73
2023/12/26 00:16:40;;;;;;;0.27;0.10;;;;;;;;;;525559;28;1020;-73
2023/12/26 00:16:55;;;;;;;1.23;0.17;;;;;;;;;;526584;28;1301;-73
2023/12/26 00:17:11;;;;;;;1.80;0.20;;;;;;;;;;526252;28;1155;-73
2023/12/26 00:17:26;;;;;;;0.50;0.10;;;;;;;;;;524107;28;1305;-73
2023/12/26 00:17:42;;;;;;;0.10;0.07;;;;;;;;;;524186;28;1645;-73
2023/12/26 00:17:57;;;;;;;0.00;0.00;;;;;;;;;;523792;28;1263;-73
2023/12/26 00:18:12;;;;;;;0.08;0.00;;;;;;;;;;523582;28;1703;-73
2023/12/26 00:18:28;;;;;;;0.10;0.00;;;;;;;;;;524053;28;945;-73
2023/12/26 00:18:43;;;;;;;0.00;0.00;;;;;;;;;;524098;28;980;-73
2023/12/26 00:18:58;;;;;;;0.00;0.00;;;;;;;;;;524330;28;1393;-73
2023/12/26 00:19:14;;;;;;;0.50;0.10;;;;;;;;;;523864;28;1421;-73
2023/12/26 00:19:29;;;;;;;0.53;0.10;;;;;;;;;;526295;28;929;-72
2023/12/26 00:19:46;;;;;;;0.80;0.13;;;;;;;;;;523839;28;1305;-74
2023/12/26 00:20:04;;;;;;;0.60;0.10;;;;;;;;;;523950;28;1207;-73
2023/12/26 00:20:20;;;;;;;0.10;0.10;;;;;;;;;;524171;28;1959;-73
2023/12/26 00:20:39;;;;;;;0.10;0.10;;;;;;;;;;524445;28;795;-73
2023/12/26 00:20:55;;;;;;;0.50;0.10;;;;;;;;;;525581;28;1098;-73
2023/12/26 00:21:10;;;;;;;0.47;0.07;;;;;;;;;;527701;28;1335;-74
2023/12/26 00:21:25;;;;;;;0.17;0.10;;;;;;;;;;528251;28;1249;-73
2023/12/26 00:21:41;;;;;;;0.40;0.10;;;;;;;;;;528024;28;968;-73
2023/12/26 00:21:56;;;;;;;0.50;0.10;;;;;;;;;;529521;27;1039;-73
2023/12/26 00:22:12;;;;;;;0.57;0.10;;;;;;;;;;528294;28;944;-73
2023/12/26 00:22:27;;;;;;;0.30;0.00;;;;;;;;;;528472;28;1378;-73
2023/12/26 00:22:42;;;;;;;0.10;0.00;;;;;;;;;;529261;27;1383;-73
2023/12/26 00:22:58;;;;;;;0.00;0.00;;;;;;;;;;528922;27;1188;-73
2023/12/26 00:23:14;;;;;;;0.00;0.00;;;;;;;;;;528488;28;940;-73
2023/12/26 00:23:29;;;;;;;0.00;0.00;;;;;;;;;;525516;28;1882;-73
2023/12/26 00:23:44;;;;;;;0.20;0.10;;;;;;;;;;525219;28;988;-73
2023/12/26 00:23:59;;;;;;;0.30;0.10;;;;;;;;;;526029;28;1095;-73
2023/12/26 00:24:15;;;;;;;0.37;0.07;;;;;;;;;;526139;28;1141;-73
2023/12/26 00:24:30;;;;;;;0.40;0.07;;;;;;;;;;525918;28;782;-73
2023/12/26 00:24:48;;;;;;;0.10;0.00;;;;;;;;;;522073;28;1299;-73
2023/12/26 00:25:03;;;;;;;0.40;0.00;;;;;;;;;;524191;28;981;-73
2023/12/26 00:25:19;;;;;;;0.60;0.00;;;;;;;;;;522670;28;1178;-73
2023/12/26 00:25:34;;;;;;;0.40;0.00;;;;;;;;;;524020;28;1144;-72
2023/12/26 00:25:49;;;;;;;0.20;0.10;;;;;;;;;;524135;28;1087;-73
2023/12/26 00:26:05;;;;;;;0.20;0.10;;;;;;;;;;524075;28;2381;-73
2023/12/26 00:26:20;;;;;;;0.20;0.10;;;;;;;;;;526269;28;1842;-72
2023/12/26 00:26:38;;;;;;;0.32;0.03;;;;;;;;;;524960;28;1748;-73
2023/12/26 00:26:54;;;;;;;0.40;0.00;;;;;;;;;;526146;28;1284;-73
2023/12/26 00:27:09;;;;;;;0.07;0.00;;;;;;;;;;526948;28;857;-73
2023/12/26 00:27:24;;;;;;;0.20;0.00;;;;;;;;;;529608;27;2049;-73
2023/12/26 00:27:40;;;;;;;0.13;0.10;;;;;;;;;;530507;27;810;-73
2023/12/26 00:27:55;;;;;;;0.20;0.10;;;;;;;;;;531024;27;1061;-73
2023/12/26 00:28:13;;;;;;;0.20;0.00;;;;;;;;;;532614;27;805;-73
2023/12/26 00:28:29;;;;;;;0.10;0.00;;;;;;;;;;530485;27;833;-73
2023/12/26 00:28:44;;;;;;;0.00;0.00;;;;;;;;;;529928;27;830;-73
2023/12/26 00:28:59;;;;;;;0.60;0.10;;;;;;;;;;527840;28;1305;-73
2023/12/26 00:29:15;;;;;;;0.47;0.08;;;;;;;;;;527696;28;880;-73
2023/12/26 00:29:30;;;;;;;0.20;0.00;;;;;;;;;;527892;28;853;-72
2023/12/26 00:29:46;;;;;;;1.00;0.10;;;;;;;;;;528461;28;972;-73
2023/12/26 00:30:01;;;;;;;0.80;0.00;;;;;;;;;;526240;28;1361;-73
2023/12/26 00:30:16;;;;;;;0.40;0.00;;;;;;;;;;525575;28;1346;-73
2023/12/26 00:30:32;;;;;;;0.40;0.00;;;;;;;;;;526033;28;1206;-73
2023/12/26 00:30:47;;;;;;;0.00;0.00;;;;;;;;;;525511;28;1941;-73
2023/12/26 00:31:02;;;;;;;0.03;0.03;;;;;;;;;;529438;27;1162;-73
2023/12/26 00:31:18;;;;;;;0.20;0.03;;;;;;;;;;529080;27;825;-73
2023/12/26 00:31:33;;;;;;;0.63;0.03;;;;;;;;;;528052;27;1948;-73
2023/12/26 00:31:48;;;;;;;0.63;0.10;;;;;;;;;;528099;27;1921;-73
2023/12/26 00:32:04;;;;;;;1.00;0.10;;;;;;;;;;530386;27;1196;-73
2023/12/26 00:32:19;;;;;;;0.77;0.10;;;;;;;;;;530483;27;1202;-73
2023/12/26 00:32:35;;;;;;;0.10;0.10;;;;;;;;;;528818;27;1619;-74
2023/12/26 00:32:50;;;;;;;0.00;0.00;;;;;;;;;;529244;27;1000;-73
2023/12/26 00:33:06;;;;;;;0.53;0.10;;;;;;;;;;530642;27;814;-73
2023/12/26 00:33:21;;;;;;;0.60;0.10;;;;;;;;;;530010;27;947;-74
2023/12/26 00:33:36;;;;;;;0.13;0.00;;;;;;;;;;530376;27;1176;-74
2023/12/26 00:33:53;;;;;;;0.40;0.10;;;;;;;;;;530305;27;1165;-73
2023/12/26 00:34:08;;;;;;;0.40;0.10;;;;;;;;;;529454;27;1178;-74
2023/12/26 00:34:24;;;;;;;0.10;0.00;;;;;;;;;;528797;27;1443;-74
2023/12/26 00:34:39;;;;;;;0.00;0.00;;;;;;;;;;530442;27;806;-73
2023/12/26 00:34:55;;;;;;;0.50;0.00;;;;;;;;;;530045;27;1554;-73
2023/12/26 00:35:12;;;;;;;0.50;0.00;;;;;;;;;;529301;27;1654;-73
2023/12/26 00:35:27;;;;;;;0.05;0.00;;;;;;;;;;527293;28;1647;-73
2023/12/26 00:35:42;;;;;;;0.10;0.00;;;;;;;;;;528037;28;1259;-73
2023/12/26 00:35:59;;;;;;;0.00;0.00;;;;;;;;;;528370;28;1130;-73
2023/12/26 00:36:18;;;;;;;0.00;0.00;;;;;;;;;;527521;28;1021;-73
2023/12/26 00:36:33;;;;;;;0.15;0.00;;;;;;;;;;527832;28;873;-73
2023/12/26 00:36:49;;;;;;;0.13;0.00;;;;;;;;;;528032;28;1316;-73
2023/12/26 00:37:04;;;;;;;0.60;0.00;;;;;;;;;;526270;28;1332;-73
2023/12/26 00:37:21;;;;;;;0.70;0.08;;;;;;;;;;526927;28;1329;-73
2023/12/26 00:37:36;;;;;;;0.30;0.10;;;;;;;;;;528424;28;1111;-73
2023/12/26 00:37:51;;;;;;;0.43;0.10;;;;;;;;;;528332;28;1147;-73
2023/12/26 00:38:07;;;;;;;0.67;0.00;;;;;;;;;;528514;28;825;-73
2023/12/26 00:38:23;;;;;;;0.40;0.00;;;;;;;;;;526184;28;1334;-73
2023/12/26 00:38:38;;;;;;;0.15;0.00;;;;;;;;;;525732;28;881;-73
2023/12/26 00:38:53;;;;;;;0.50;0.10;;;;;;;;;;525212;28;1154;-73
2023/12/26 00:39:09;;;;;;;0.50;0.10;;;;;;;;;;528407;28;782;-73
2023/12/26 00:39:24;;;;;;;0.30;0.10;;;;;;;;;;527309;28;1762;-73
2023/12/26 00:39:40;;;;;;;0.30;0.10;;;;;;;;;;528450;28;774;-74
2023/12/26 00:39:55;;;;;;;0.10;0.00;;;;;;;;;;526122;28;1362;-73
2023/12/26 00:40:12;;;;;;;0.10;0.00;;;;;;;;;;526450;28;731;-73
2023/12/26 00:40:27;;;;;;;0.10;0.00;;;;;;;;;;528356;28;1959;-73
2023/12/26 00:40:43;;;;;;;0.50;0.00;;;;;;;;;;528205;28;1193;-73
2023/12/26 00:40:58;;;;;;;0.40;0.00;;;;;;;;;;528338;28;1153;-74
2023/12/26 00:41:14;;;;;;;0.17;0.00;;;;;;;;;;528293;28;845;-74
2023/12/26 00:41:29;;;;;;;0.40;0.00;;;;;;;;;;527574;28;1283;-73
2023/12/26 00:41:45;;;;;;;0.10;0.00;;;;;;;;;;528287;28;916;-73
2023/12/26 00:42:00;;;;;;;0.30;0.03;;;;;;;;;;528202;28;1335;-73
2023/12/26 00:42:15;;;;;;;0.50;0.08;;;;;;;;;;528494;28;802;-74
2023/12/26 00:42:31;;;;;;;0.53;0.10;;;;;;;;;;528305;27;1404;-74
2023/12/26 00:42:46;;;;;;;0.30;0.08;;;;;;;;;;528590;28;809;-73
2023/12/26 00:43:02;;;;;;;0.00;0.00;;;;;;;;;;530375;27;1031;-73
2023/12/26 00:43:18;;;;;;;0.00;0.00;;;;;;;;;;530884;27;842;-73
2023/12/26 00:43:34;;;;;;;0.00;0.00;;;;;;;;;;528309;28;1413;-73
2023/12/26 00:43:51;;;;;;;0.05;0.05;;;;;;;;;;527957;28;1864;-73
2023/12/26 00:44:07;;;;;;;0.15;0.05;;;;;;;;;;528102;28;1370;-73
2023/12/26 00:44:22;;;;;;;0.20;0.00;;;;;;;;;;528378;28;904;-73
2023/12/26 00:44:37;;;;;;;0.03;0.00;;;;;;;;;;528348;28;885;-73
2023/12/26 00:44:53;;;;;;;0.00;0.00;;;;;;;;;;527805;27;1047;-73
2023/12/26 00:45:08;;;;;;;0.10;0.10;;;;;;;;;;528380;28;929;-73
2023/12/26 00:45:25;;;;;;;0.17;0.05;;;;;;;;;;526926;28;1194;-73
2023/12/26 00:45:40;;;;;;;0.28;0.00;;;;;;;;;;529674;27;1212;-74
2023/12/26 00:45:55;;;;;;;0.17;0.00;;;;;;;;;;529249;27;1046;-73
2023/12/26 00:46:11;;;;;;;0.03;0.00;;;;;;;;;;525816;28;1301;-73
2023/12/26 00:46:26;;;;;;;0.10;0.00;;;;;;;;;;526054;28;1394;-73
2023/12/26 00:46:43;;;;;;;0.05;0.00;;;;;;;;;;525186;28;1394;-74
2023/12/26 00:46:58;;;;;;;0.30;0.00;;;;;;;;;;525558;28;1376;-73
2023/12/26 00:47:13;;;;;;;0.30;0.00;;;;;;;;;;526376;28;1608;-73
2023/12/26 00:47:29;;;;;;;0.50;0.10;;;;;;;;;;528034;27;1828;-73
2023/12/26 00:47:44;;;;;;;0.50;0.10;;;;;;;;;;528277;28;874;-73
2023/12/26 00:47:59;;;;;;;0.00;0.00;;;;;;;;;;527942;27;1193;-73
2023/12/26 00:48:15;;;;;;;0.27;0.10;;;;;;;;;;526037;28;1332;-73
2023/12/26 00:48:30;;;;;;;0.20;0.10;;;;;;;;;;527689;28;1167;-73
2023/12/26 00:48:45;;;;;;;0.17;0.10;;;;;;;;;;528454;28;1035;-73
2023/12/26 00:49:01;;;;;;;0.13;0.10;;;;;;;;;;528085;27;1154;-73
2023/12/26 00:49:16;;;;;;;0.00;0.00;;;;;;;;;;528296;28;995;-73
2023/12/26 00:49:31;;;;;;;0.10;0.00;;;;;;;;;;528418;28;1311;-73
2023/12/26 00:49:47;;;;;;;0.10;0.10;;;;;;;;;;528450;28;884;-73
2023/12/26 00:50:03;;;;;;;0.00;0.00;;;;;;;;;;526126;28;1170;-73
2023/12/26 00:50:18;;;;;;;0.00;0.00;;;;;;;;;;526256;28;834;-73
2023/12/26 00:50:35;;;;;;;0.00;0.00;;;;;;;;;;524174;28;1309;-73
2023/12/26 00:50:50;;;;;;;0.50;0.00;;;;;;;;;;524409;28;1064;-73
2023/12/26 00:51:06;;;;;;;0.37;0.00;;;;;;;;;;526316;28;1460;-73
2023/12/26 00:51:21;;;;;;;0.20;0.07;;;;;;;;;;526082;28;861;-73
2023/12/26 00:51:37;;;;;;;0.05;0.00;;;;;;;;;;523869;28;1399;-73
2023/12/26 00:51:53;;;;;;;0.20;0.10;;;;;;;;;;524673;28;1088;-73
2023/12/26 00:52:08;;;;;;;0.20;0.10;;;;;;;;;;524266;28;834;-73
2023/12/26 00:52:25;;;;;;;0.00;0.00;;;;;;;;;;524735;28;823;-73
2023/12/26 00:52:41;;;;;;;0.10;0.00;;;;;;;;;;526331;28;1366;-73
2023/12/26 00:52:56;;;;;;;0.30;0.10;;;;;;;;;;525827;28;1059;-73
2023/12/26 00:53:12;;;;;;;0.10;0.10;;;;;;;;;;526741;28;814;-73
2023/12/26 00:53:27;;;;;;;0.10;0.10;;;;;;;;;;527546;28;1810;-73
2023/12/26 00:53:42;;;;;;;0.10;0.00;;;;;;;;;;528208;28;881;-73
2023/12/26 00:53:58;;;;;;;0.00;0.00;;;;;;;;;;528842;27;1059;-73
2023/12/26 00:54:13;;;;;;;0.00;0.00;;;;;;;;;;528302;28;1487;-74
2023/12/26 00:54:28;;;;;;;0.20;0.10;;;;;;;;;;527984;28;1667;-73
2023/12/26 00:54:44;;;;;;;0.20;0.10;;;;;;;;;;525964;28;1236;-73
2023/12/26 00:54:59;;;;;;;0.00;0.00;;;;;;;;;;525927;28;1114;-73
2023/12/26 00:55:15;;;;;;;0.00;0.00;;;;;;;;;;526192;28;873;-73
2023/12/26 00:55:30;;;;;;;0.00;0.00;;;;;;;;;;526170;28;1204;-73
2023/12/26 00:55:45;;;;;;;0.13;0.10;;;;;;;;;;521932;28;1161;-73
2023/12/26 00:56:01;;;;;;;0.30;0.10;;;;;;;;;;525902;28;1293;-73
2023/12/26 00:56:16;;;;;;;0.30;0.03;;;;;;;;;;528255;28;1107;-73
2023/12/26 00:56:31;;;;;;;0.20;0.00;;;;;;;;;;527910;27;945;-73
2023/12/26 00:56:47;;;;;;;0.00;0.00;;;;;;;;;;530595;27;817;-73
2023/12/26 00:57:02;;;;;;;0.00;0.00;;;;;;;;;;530130;27;1311;-73
2023/12/26 00:57:18;;;;;;;0.00;0.00;;;;;;;;;;530541;27;881;-74
2023/12/26 00:57:33;;;;;;;0.08;0.00;;;;;;;;;;530296;27;901;-73
2023/12/26 00:57:48;;;;;;;0.30;0.10;;;;;;;;;;530881;27;1338;-73
2023/12/26 00:58:04;;;;;;;0.30;0.00;;;;;;;;;;530762;27;767;-73
2023/12/26 00:58:19;;;;;;;0.10;0.00;;;;;;;;;;530669;27;817;-73
2023/12/26 00:58:35;;;;;;;0.30;0.10;;;;;;;;;;530722;27;782;-73
2023/12/26 00:58:50;;;;;;;0.35;0.10;;;;;;;;;;530665;27;1117;-73
2023/12/26 00:59:05;;;;;;;0.10;0.10;;;;;;;;;;530736;27;948;-73
2023/12/26 00:59:21;;;;;;;0.30;0.10;;;;;;;;;;527804;28;1218;-73
2023/12/26 00:59:36;;;;;;;0.30;0.10;;;;;;;;;;528218;28;805;-73
2023/12/26 00:59:51;;;;;;;0.17;0.00;;;;;;;;;;528155;28;1450;-73
2023/12/26 01:00:07;;;;;;;0.30;0.07;;;;;;;;;;528294;28;1110;-73
2023/12/26 01:00:23;;;;;;;0.40;0.10;;;;;;;;;;525592;28;1923;-73
2023/12/26 01:00:38;;;;;;;0.08;0.00;;;;;;;;;;526243;28;1467;-73
2023/12/26 01:00:53;;;;;;;0.00;0.00;;;;;;;;;;525747;28;1083;-73
2023/12/26 01:01:09;;;;;;;0.10;0.00;;;;;;;;;;525610;28;940;-73
2023/12/26 01:01:24;;;;;;;0.40;0.00;;;;;;;;;;524092;28;2007;-73
2023/12/26 01:01:40;;;;;;;0.40;0.03;;;;;;;;;;524223;28;1749;-73
2023/12/26 01:02:00;;;;;;;0.28;0.10;;;;;;;;;;525462;28;1866;-73
2023/12/26 01:02:16;;;;;;;0.70;0.10;;;;;;;;;;525045;28;937;-73
2023/12/26 01:02:31;;;;;;;0.50;0.00;;;;;;;;;;525724;28;1344;-73
2023/12/26 01:02:47;;;;;;;0.10;0.00;;;;;;;;;;526869;28;1613;-73
2023/12/26 01:03:02;;;;;;;0.20;0.00;;;;;;;;;;525683;28;1695;-73
2023/12/26 01:03:21;;;;;;;0.07;0.00;;;;;;;;;;526311;28;916;-73
2023/12/26 01:03:37;;;;;;;0.03;0.03;;;;;;;;;;524011;28;1601;-73
2023/12/26 01:03:52;;;;;;;0.00;0.00;;;;;;;;;;523766;28;1075;-73
2023/12/26 01:04:07;;;;;;;0.30;0.03;;;;;;;;;;524169;28;882;-73
2023/12/26 01:04:23;;;;;;;1.10;0.10;;;;;;;;;;522513;28;1230;-73
2023/12/26 01:04:38;;;;;;;0.63;0.05;;;;;;;;;;524275;28;842;-73
2023/12/26 01:04:53;;;;;;;0.10;0.00;;;;;;;;;;522730;28;1079;-73
2023/12/26 01:05:09;;;;;;;0.30;0.00;;;;;;;;;;521996;28;692;-73
2023/12/26 01:05:24;;;;;;;0.50;0.10;;;;;;;;;;522325;28;846;-73
2023/12/26 01:05:39;;;;;;;0.87;0.10;;;;;;;;;;524076;28;889;-73
2023/12/26 01:05:55;;;;;;;0.60;0.00;;;;;;;;;;523769;28;1249;-73
2023/12/26 01:06:10;;;;;;;0.30;0.00;;;;;;;;;;524326;28;893;-73
2023/12/26 01:06:25;;;;;;;0.53;0.07;;;;;;;;;;523942;28;1230;-73
2023/12/26 01:06:41;;;;;;;0.30;0.03;;;;;;;;;;523464;28;905;-73
2023/12/26 01:06:56;;;;;;;0.15;0.00;;;;;;;;;;525474;28;1036;-74
2023/12/26 01:07:11;;;;;;;0.10;0.00;;;;;;;;;;528399;28;889;-73
2023/12/26 01:07:27;;;;;;;0.10;0.00;;;;;;;;;;528433;28;890;-74
2023/12/26 01:07:42;;;;;;;0.20;0.00;;;;;;;;;;528299;28;873;-73
2023/12/26 01:07:57;;;;;;;0.47;0.00;;;;;;;;;;527887;28;1055;-73
2023/12/26 01:08:13;;;;;;;0.40;0.10;;;;;;;;;;526176;28;1304;-73
2023/12/26 01:08:28;;;;;;;0.05;0.00;;;;;;;;;;525895;28;1448;-73
2023/12/26 01:08:43;;;;;;;0.10;0.00;;;;;;;;;;526043;28;948;-74
2023/12/26 01:08:58;;;;;;;0.07;0.00;;;;;;;;;;527608;28;1027;-73
2023/12/26 01:09:14;;;;;;;0.10;0.00;;;;;;;;;;528236;28;1105;-73
2023/12/26 01:09:29;;;;;;;0.20;0.10;;;;;;;;;;528451;28;857;-73
2023/12/26 01:09:44;;;;;;;0.80;0.20;;;;;;;;;;528361;28;913;-73
2023/12/26 01:10:04;;;;;;;0.80;0.20;;;;;;;;;;528025;27;1149;-74
2023/12/26 01:10:20;;;;;;;0.60;0.10;;;;;;;;;;527927;27;1881;-74
2023/12/26 01:10:35;;;;;;;0.20;0.00;;;;;;;;;;530225;27;1201;-74
2023/12/26 01:10:51;;;;;;;0.30;0.10;;;;;;;;;;528392;28;1364;-74
2023/12/26 01:11:06;;;;;;;0.40;0.10;;;;;;;;;;528415;28;881;-73
2023/12/26 01:11:21;;;;;;;0.37;0.10;;;;;;;;;;528339;28;818;-73
2023/12/26 01:11:37;;;;;;;0.40;0.10;;;;;;;;;;527570;28;1033;-73
2023/12/26 01:11:52;;;;;;;0.00;0.00;;;;;;;;;;528225;28;1071;-73
2023/12/26 01:12:08;;;;;;;0.00;0.00;;;;;;;;;;528264;28;810;-73
2023/12/26 01:12:23;;;;;;;0.30;0.15;;;;;;;;;;527967;28;858;-73
2023/12/26 01:12:38;;;;;;;0.80;0.40;;;;;;;;;;526402;28;1269;-73
2023/12/26 01:12:54;;;;;;;0.80;0.30;;;;;;;;;;525890;28;1242;-73
2023/12/26 01:13:09;;;;;;;0.90;0.30;;;;;;;;;;526129;28;992;-73
2023/12/26 01:13:26;;;;;;;0.73;0.30;;;;;;;;;;526197;28;1103;-73
2023/12/26 01:13:41;;;;;;;0.28;0.17;;;;;;;;;;526097;28;1117;-73
2023/12/26 01:13:56;;;;;;;0.20;0.07;;;;;;;;;;524059;28;1151;-73
2023/12/26 01:14:12;;;;;;;0.30;0.00;;;;;;;;;;523967;28;851;-73
2023/12/26 01:14:27;;;;;;;0.20;0.00;;;;;;;;;;524276;28;854;-73
2023/12/26 01:14:43;;;;;;;0.00;0.00;;;;;;;;;;526615;28;1012;-73
2023/12/26 01:14:59;;;;;;;0.00;0.00;;;;;;;;;;526185;28;1468;-73
2023/12/26 01:15:14;;;;;;;0.00;0.00;;;;;;;;;;526049;28;1535;-73
2023/12/26 01:15:29;;;;;;;0.30;0.00;;;;;;;;;;526529;28;1790;-73
2023/12/26 01:15:45;;;;;;;0.40;0.03;;;;;;;;;;526289;27;1716;-74
2023/12/26 01:16:02;;;;;;;0.20;0.10;;;;;;;;;;529749;27;1090;-73
2023/12/26 01:16:19;;;;;;;0.10;0.10;;;;;;;;;;528134;27;943;-73
2023/12/26 01:16:37;;;;;;;0.10;0.00;;;;;;;;;;525267;28;1458;-73
2023/12/26 01:16:52;;;;;;;0.00;0.00;;;;;;;;;;525964;28;1149;-73
2023/12/26 01:17:07;;;;;;;0.10;0.00;;;;;;;;;;523929;28;1434;-73
2023/12/26 01:17:23;;;;;;;0.00;0.00;;;;;;;;;;524124;28;893;-73
2023/12/26 01:17:38;;;;;;;0.20;0.00;;;;;;;;;;524379;28;1613;-74
2023/12/26 01:17:53;;;;;;;0.20;0.00;;;;;;;;;;526293;28;1403;-73
2023/12/26 01:18:09;;;;;;;0.10;0.00;;;;;;;;;;526708;28;1354;-73
2023/12/26 01:18:24;;;;;;;0.20;0.00;;;;;;;;;;526463;28;826;-73
2023/12/26 01:18:39;;;;;;;0.13;0.10;;;;;;;;;;528408;28;897;-73
2023/12/26 01:18:55;;;;;;;0.20;0.00;;;;;;;;;;528287;27;1145;-74
2023/12/26 01:19:12;;;;;;;0.10;0.00;;;;;;;;;;530495;27;892;-73
2023/12/26 01:19:27;;;;;;;0.10;0.00;;;;;;;;;;530572;27;825;-73
2023/12/26 01:19:42;;;;;;;0.50;0.10;;;;;;;;;;530217;27;869;-73
2023/12/26 01:19:58;;;;;;;0.70;0.10;;;;;;;;;;528258;28;1075;-73
2023/12/26 01:20:13;;;;;;;0.70;0.10;;;;;;;;;;528337;28;814;-74
2023/12/26 01:20:29;;;;;;;0.77;0.10;;;;;;;;;;528080;28;1937;-73
2023/12/26 01:20:44;;;;;;;0.30;0.05;;;;;;;;;;528308;28;794;-73
2023/12/26 01:21:00;;;;;;;0.05;0.05;;;;;;;;;;528264;28;1115;-73
2023/12/26 01:21:15;;;;;;;0.00;0.00;;;;;;;;;;528200;28;754;-73
2023/12/26 01:21:30;;;;;;;0.00;0.00;;;;;;;;;;527881;28;1208;-73
2023/12/26 01:21:46;;;;;;;0.10;0.03;;;;;;;;;;527976;28;968;-74
2023/12/26 01:22:01;;;;;;;0.40;0.10;;;;;;;;;;528147;28;1170;-73
2023/12/26 01:22:16;;;;;;;0.43;0.10;;;;;;;;;;528068;28;1413;-73
2023/12/26 01:22:31;;;;;;;0.30;0.10;;;;;;;;;;528704;27;1378;-73
2023/12/26 01:22:47;;;;;;;0.45;0.10;;;;;;;;;;530455;27;786;-73
2023/12/26 01:23:02;;;;;;;0.30;0.10;;;;;;;;;;528067;28;1101;-74
2023/12/26 01:23:18;;;;;;;0.00;0.00;;;;;;;;;;528193;28;1288;-74
2023/12/26 01:23:34;;;;;;;0.00;0.00;;;;;;;;;;528527;28;1894;-73
2023/12/26 01:23:51;;;;;;;0.10;0.00;;;;;;;;;;529290;27;1011;-73
2023/12/26 01:24:06;;;;;;;0.10;0.03;;;;;;;;;;527864;28;1596;-73
2023/12/26 01:24:21;;;;;;;0.03;0.00;;;;;;;;;;528239;28;889;-73
2023/12/26 01:24:37;;;;;;;0.32;0.10;;;;;;;;;;526050;28;1173;-73
2023/12/26 01:24:52;;;;;;;0.40;0.10;;;;;;;;;;526415;28;1155;-73
2023/12/26 01:25:07;;;;;;;0.13;0.10;;;;;;;;;;528415;28;840;-73
2023/12/26 01:25:23;;;;;;;0.10;0.10;;;;;;;;;;526756;28;1850;-74
2023/12/26 01:25:38;;;;;;;0.00;0.00;;;;;;;;;;522195;28;1332;-73
2023/12/26 01:25:53;;;;;;;0.00;0.00;;;;;;;;;;522664;28;795;-74
2023/12/26 01:26:09;;;;;;;0.28;0.00;;;;;;;;;;521934;28;1225;-74
2023/12/26 01:26:25;;;;;;;0.27;0.00;;;;;;;;;;522095;28;810;-74
2023/12/26 01:26:40;;;;;;;0.08;0.00;;;;;;;;;;523525;28;783;-73
2023/12/26 01:26:56;;;;;;;0.20;0.00;;;;;;;;;;525087;28;1304;-73
2023/12/26 01:27:11;;;;;;;0.30;0.00;;;;;;;;;;524013;28;1526;-73
2023/12/26 01:27:26;;;;;;;0.20;0.00;;;;;;;;;;524253;28;890;-74
2023/12/26 01:27:42;;;;;;;0.22;0.00;;;;;;;;;;521858;28;1374;-73
2023/12/26 01:27:58;;;;;;;0.20;0.10;;;;;;;;;;524313;28;1078;-73
2023/12/26 01:28:13;;;;;;;0.10;0.05;;;;;;;;;;525844;28;845;-73
2023/12/26 01:28:29;;;;;;;0.20;0.00;;;;;;;;;;525954;28;1325;-73
2023/12/26 01:28:44;;;;;;;0.40;0.00;;;;;;;;;;526064;28;818;-74
2023/12/26 01:29:01;;;;;;;0.50;0.10;;;;;;;;;;523845;28;1338;-74
2023/12/26 01:29:16;;;;;;;0.10;0.10;;;;;;;;;;523878;28;1350;-73
2023/12/26 01:29:31;;;;;;;0.30;0.10;;;;;;;;;;524567;28;1139;-73
2023/12/26 01:29:48;;;;;;;0.30;0.10;;;;;;;;;;526871;28;1132;-73
2023/12/26 01:30:04;;;;;;;0.00;0.00;;;;;;;;;;526298;28;984;-73
2023/12/26 01:30:20;;;;;;;0.00;0.00;;;;;;;;;;524050;28;1187;-74
2023/12/26 01:30:38;;;;;;;0.07;0.00;;;;;;;;;;521936;28;1258;-73
2023/12/26 01:30:53;;;;;;;0.10;0.05;;;;;;;;;;521823;28;1420;-74
2023/12/26 01:31:09;;;;;;;0.00;0.00;;;;;;;;;;524978;28;1773;-73
2023/12/26 01:31:24;;;;;;;0.10;0.00;;;;;;;;;;523872;28;1675;-74
2023/12/26 01:31:39;;;;;;;0.40;0.10;;;;;;;;;;523597;28;1158;-73
2023/12/26 01:31:55;;;;;;;0.40;0.10;;;;;;;;;;525098;28;1105;-73
2023/12/26 01:32:10;;;;;;;0.10;0.03;;;;;;;;;;526877;28;928;-73
2023/12/26 01:32:25;;;;;;;0.80;0.10;;;;;;;;;;528598;27;1355;-74
2023/12/26 01:32:41;;;;;;;0.60;0.10;;;;;;;;;;529242;27;1820;-74
2023/12/26 01:32:57;;;;;;;0.00;0.00;;;;;;;;;;530152;27;936;-73
2023/12/26 01:33:12;;;;;;;0.00;0.00;;;;;;;;;;530493;27;974;-74
2023/12/26 01:33:27;;;;;;;0.40;0.10;;;;;;;;;;530682;27;829;-73
2023/12/26 01:33:42;;;;;;;0.50;0.10;;;;;;;;;;530190;27;1153;-73
2023/12/26 01:33:58;;;;;;;0.30;0.10;;;;;;;;;;527986;28;1146;-74
2023/12/26 01:34:13;;;;;;;0.17;0.07;;;;;;;;;;528038;28;1195;-74
2023/12/26 01:34:28;;;;;;;0.10;0.10;;;;;;;;;;526327;28;1368;-73
2023/12/26 01:34:44;;;;;;;0.03;0.00;;;;;;;;;;526846;28;1161;-73
2023/12/26 01:35:00;;;;;;;0.30;0.10;;;;;;;;;;526958;28;1031;-73
2023/12/26 01:35:15;;;;;;;0.40;0.10;;;;;;;;;;528262;28;837;-73
2023/12/26 01:35:30;;;;;;;0.10;0.10;;;;;;;;;;528260;28;817;-73
2023/12/26 01:35:46;;;;;;;0.15;0.10;;;;;;;;;;528294;28;829;-73
2023/12/26 01:36:01;;;;;;;0.20;0.00;;;;;;;;;;528088;28;1039;-73
2023/12/26 01:36:16;;;;;;;0.30;0.00;;;;;;;;;;528331;28;801;-73
2023/12/26 01:36:32;;;;;;;0.30;0.10;;;;;;;;;;527638;28;908;-73
2023/12/26 01:36:47;;;;;;;0.17;0.10;;;;;;;;;;528432;27;1339;-73
2023/12/26 01:37:03;;;;;;;0.33;0.10;;;;;;;;;;528218;28;869;-73